sensor_id;sensor_type;location;lat;lon;timestamp;P1;durP1;ratioP1;P2;durP2;ratioP2
69087;SDS011;56190;43.562;5.036;2022-12-29T00:00:59;12.50;;;7.70;;
69087;SDS011;56190;43.562;5.036;2022-12-29T00:03:25;11.18;;;6.57;;
69087;SDS011;56190;43.562;5.036;2022-12-29T00:05:56;12.30;;;6.88;;
69087;SDS011;56190;43.562;5.036;2022-12-29T00:08:22;12.68;;;8.45;;
69087;SDS011;56190;43.562;5.036;2022-12-29T00:11:04;13.50;;;8.63;;
69087;SDS011;56190;43.562;5.036;2022-12-29T00:13:30;13.50;;;9.20;;
69087;SDS011;56190;43.562;5.036;2022-12-29T00:16:13;13.38;;;7.45;;
69087;SDS011;56190;43.562;5.036;2022-12-29T00:18:39;13.23;;;8.27;;
69087;SDS011;56190;43.562;5.036;2022-12-29T00:21:04;13.57;;;9.20;;
69087;SDS011;56190;43.562;5.036;2022-12-29T00:23:48;13.10;;;7.57;;
69087;SDS011;56190;43.562;5.036;2022-12-29T00:26:32;12.32;;;7.65;;
69087;SDS011;56190;43.562;5.036;2022-12-29T00:29:16;9.02;;;6.63;;
69087;SDS011;56190;43.562;5.036;2022-12-29T00:32:00;8.98;;;6.43;;
69087;SDS011;56190;43.562;5.036;2022-12-29T00:34:44;10.98;;;6.57;;
69087;SDS011;56190;43.562;5.036;2022-12-29T00:37:28;8.23;;;6.70;;
69087;SDS011;56190;43.562;5.036;2022-12-29T00:40:12;10.85;;;7.15;;
69087;SDS011;56190;43.562;5.036;2022-12-29T00:42:56;10.30;;;7.50;;
69087;SDS011;56190;43.562;5.036;2022-12-29T00:45:40;11.40;;;7.50;;
69087;SDS011;56190;43.562;5.036;2022-12-29T00:48:06;11.25;;;7.20;;
69087;SDS011;56190;43.562;5.036;2022-12-29T00:50:31;11.48;;;7.32;;
69087;SDS011;56190;43.562;5.036;2022-12-29T00:52:56;9.77;;;7.20;;
69087;SDS011;56190;43.562;5.036;2022-12-29T00:55:21;9.38;;;7.30;;
69087;SDS011;56190;43.562;5.036;2022-12-29T00:57:47;10.20;;;7.40;;
69087;SDS011;56190;43.562;5.036;2022-12-29T01:00:12;14.02;;;7.20;;
69087;SDS011;56190;43.562;5.036;2022-12-29T01:02:37;8.38;;;7.03;;
69087;SDS011;56190;43.562;5.036;2022-12-29T01:05:03;10.70;;;6.88;;
69087;SDS011;56190;43.562;5.036;2022-12-29T01:07:28;9.48;;;6.13;;
69087;SDS011;56190;43.562;5.036;2022-12-29T01:09:53;9.65;;;6.97;;
69087;SDS011;56190;43.562;5.036;2022-12-29T01:12:37;9.63;;;6.45;;
69087;SDS011;56190;43.562;5.036;2022-12-29T01:15:06;8.90;;;6.13;;
69087;SDS011;56190;43.562;5.036;2022-12-29T01:17:31;9.93;;;6.45;;
69087;SDS011;56190;43.562;5.036;2022-12-29T01:19:56;8.15;;;6.25;;
69087;SDS011;56190;43.562;5.036;2022-12-29T01:22:22;8.60;;;5.68;;
69087;SDS011;56190;43.562;5.036;2022-12-29T01:24:47;8.27;;;6.45;;
69087;SDS011;56190;43.562;5.036;2022-12-29T01:27:14;9.82;;;6.57;;
69087;SDS011;56190;43.562;5.036;2022-12-29T01:29:39;8.35;;;6.03;;
69087;SDS011;56190;43.562;5.036;2022-12-29T01:32:04;9.93;;;6.70;;
69087;SDS011;56190;43.562;5.036;2022-12-29T01:34:29;11.25;;;6.78;;
69087;SDS011;56190;43.562;5.036;2022-12-29T01:36:55;10.95;;;6.20;;
69087;SDS011;56190;43.562;5.036;2022-12-29T01:39:20;10.68;;;5.82;;
69087;SDS011;56190;43.562;5.036;2022-12-29T01:41:45;10.70;;;6.90;;
69087;SDS011;56190;43.562;5.036;2022-12-29T01:46:54;9.43;;;6.13;;
69087;SDS011;56190;43.562;5.036;2022-12-29T01:49:21;11.00;;;6.07;;
69087;SDS011;56190;43.562;5.036;2022-12-29T01:51:50;7.90;;;5.43;;
69087;SDS011;56190;43.562;5.036;2022-12-29T01:54:26;9.38;;;5.30;;
69087;SDS011;56190;43.562;5.036;2022-12-29T01:56:53;7.15;;;4.95;;
69087;SDS011;56190;43.562;5.036;2022-12-29T01:59:21;10.60;;;5.63;;
69087;SDS011;56190;43.562;5.036;2022-12-29T02:01:47;6.32;;;5.15;;
69087;SDS011;56190;43.562;5.036;2022-12-29T02:04:12;8.32;;;5.55;;
69087;SDS011;56190;43.562;5.036;2022-12-29T02:06:41;7.07;;;5.35;;
69087;SDS011;56190;43.562;5.036;2022-12-29T02:09:08;10.15;;;6.07;;
69087;SDS011;56190;43.562;5.036;2022-12-29T02:11:33;11.75;;;5.82;;
69087;SDS011;56190;43.562;5.036;2022-12-29T02:14:00;8.30;;;6.10;;
69087;SDS011;56190;43.562;5.036;2022-12-29T02:26:44;10.18;;;6.80;;
69087;SDS011;56190;43.562;5.036;2022-12-29T02:31:45;9.48;;;5.95;;
69087;SDS011;56190;43.562;5.036;2022-12-29T02:36:46;10.13;;;5.82;;
69087;SDS011;56190;43.562;5.036;2022-12-29T02:41:56;8.40;;;5.45;;
69087;SDS011;56190;43.562;5.036;2022-12-29T02:49:36;9.15;;;5.88;;
69087;SDS011;56190;43.562;5.036;2022-12-29T02:52:14;6.78;;;5.40;;
69087;SDS011;56190;43.562;5.036;2022-12-29T02:54:41;9.07;;;5.85;;
69087;SDS011;56190;43.562;5.036;2022-12-29T02:59:51;9.23;;;6.05;;
69087;SDS011;56190;43.562;5.036;2022-12-29T03:10:01;6.63;;;5.55;;
69087;SDS011;56190;43.562;5.036;2022-12-29T03:15:26;10.57;;;6.05;;
69087;SDS011;56190;43.562;5.036;2022-12-29T03:18:45;10.57;;;6.10;;
69087;SDS011;56190;43.562;5.036;2022-12-29T03:21:05;10.88;;;5.60;;
69087;SDS011;56190;43.562;5.036;2022-12-29T03:23:31;8.57;;;5.68;;
69087;SDS011;56190;43.562;5.036;2022-12-29T03:25:59;8.88;;;5.28;;
69087;SDS011;56190;43.562;5.036;2022-12-29T03:31:09;9.32;;;5.82;;
69087;SDS011;56190;43.562;5.036;2022-12-29T03:33:35;9.48;;;5.85;;
69087;SDS011;56190;43.562;5.036;2022-12-29T03:36:03;8.68;;;5.18;;
69087;SDS011;56190;43.562;5.036;2022-12-29T03:38:36;10.63;;;5.78;;
69087;SDS011;56190;43.562;5.036;2022-12-29T03:41:04;8.57;;;5.70;;
69087;SDS011;56190;43.562;5.036;2022-12-29T03:43:30;12.25;;;6.35;;
69087;SDS011;56190;43.562;5.036;2022-12-29T03:45:56;9.38;;;5.22;;
69087;SDS011;56190;43.562;5.036;2022-12-29T03:48:21;8.85;;;5.72;;
69087;SDS011;56190;43.562;5.036;2022-12-29T03:50:46;9.43;;;5.65;;
69087;SDS011;56190;43.562;5.036;2022-12-29T03:53:11;7.20;;;5.38;;
69087;SDS011;56190;43.562;5.036;2022-12-29T03:55:37;8.60;;;5.57;;
69087;SDS011;56190;43.562;5.036;2022-12-29T03:58:02;8.65;;;5.25;;
69087;SDS011;56190;43.562;5.036;2022-12-29T04:00:27;9.68;;;5.50;;
69087;SDS011;56190;43.562;5.036;2022-12-29T04:02:53;8.98;;;5.43;;
69087;SDS011;56190;43.562;5.036;2022-12-29T04:05:18;6.35;;;5.50;;
69087;SDS011;56190;43.562;5.036;2022-12-29T04:07:44;8.98;;;5.78;;
69087;SDS011;56190;43.562;5.036;2022-12-29T04:10:09;7.38;;;5.70;;
69087;SDS011;56190;43.562;5.036;2022-12-29T04:12:34;8.18;;;5.45;;
69087;SDS011;56190;43.562;5.036;2022-12-29T04:14:59;7.57;;;5.03;;
69087;SDS011;56190;43.562;5.036;2022-12-29T04:17:25;10.27;;;5.97;;
69087;SDS011;56190;43.562;5.036;2022-12-29T04:19:50;8.27;;;5.22;;
69087;SDS011;56190;43.562;5.036;2022-12-29T04:22:16;8.32;;;5.60;;
69087;SDS011;56190;43.562;5.036;2022-12-29T04:24:41;8.10;;;5.50;;
69087;SDS011;56190;43.562;5.036;2022-12-29T04:27:06;9.00;;;6.13;;
69087;SDS011;56190;43.562;5.036;2022-12-29T04:29:31;9.88;;;5.55;;
69087;SDS011;56190;43.562;5.036;2022-12-29T04:31:57;7.65;;;5.32;;
69087;SDS011;56190;43.562;5.036;2022-12-29T04:34:22;9.55;;;5.40;;
69087;SDS011;56190;43.562;5.036;2022-12-29T04:36:47;6.18;;;5.40;;
69087;SDS011;56190;43.562;5.036;2022-12-29T04:39:12;7.55;;;5.50;;
69087;SDS011;56190;43.562;5.036;2022-12-29T04:41:38;8.13;;;5.75;;
69087;SDS011;56190;43.562;5.036;2022-12-29T04:44:03;8.23;;;5.25;;
69087;SDS011;56190;43.562;5.036;2022-12-29T04:46:28;7.35;;;5.07;;
69087;SDS011;56190;43.562;5.036;2022-12-29T04:48:53;7.78;;;5.43;;
69087;SDS011;56190;43.562;5.036;2022-12-29T04:51:19;7.70;;;5.35;;
69087;SDS011;56190;43.562;5.036;2022-12-29T04:53:44;9.32;;;5.43;;
69087;SDS011;56190;43.562;5.036;2022-12-29T04:56:09;7.75;;;5.10;;
69087;SDS011;56190;43.562;5.036;2022-12-29T04:58:35;7.85;;;5.18;;
69087;SDS011;56190;43.562;5.036;2022-12-29T05:01:00;10.20;;;5.22;;
69087;SDS011;56190;43.562;5.036;2022-12-29T05:03:26;7.30;;;5.13;;
69087;SDS011;56190;43.562;5.036;2022-12-29T05:05:54;7.57;;;5.38;;
69087;SDS011;56190;43.562;5.036;2022-12-29T05:08:20;7.93;;;4.85;;
69087;SDS011;56190;43.562;5.036;2022-12-29T05:10:45;8.10;;;4.93;;
69087;SDS011;56190;43.562;5.036;2022-12-29T05:13:10;6.82;;;4.97;;
69087;SDS011;56190;43.562;5.036;2022-12-29T05:15:36;7.93;;;5.05;;
69087;SDS011;56190;43.562;5.036;2022-12-29T05:18:01;7.47;;;5.20;;
69087;SDS011;56190;43.562;5.036;2022-12-29T05:20:26;8.13;;;5.18;;
69087;SDS011;56190;43.562;5.036;2022-12-29T05:22:52;7.30;;;5.28;;
69087;SDS011;56190;43.562;5.036;2022-12-29T05:25:17;6.22;;;5.32;;
69087;SDS011;56190;43.562;5.036;2022-12-29T05:27:42;9.32;;;5.53;;
69087;SDS011;56190;43.562;5.036;2022-12-29T05:30:07;6.68;;;4.80;;
69087;SDS011;56190;43.562;5.036;2022-12-29T05:32:33;8.63;;;4.75;;
69087;SDS011;56190;43.562;5.036;2022-12-29T05:34:59;7.82;;;5.32;;
69087;SDS011;56190;43.562;5.036;2022-12-29T05:37:24;8.88;;;5.47;;
69087;SDS011;56190;43.562;5.036;2022-12-29T05:39:49;10.77;;;5.90;;
69087;SDS011;56190;43.562;5.036;2022-12-29T05:42:15;7.63;;;5.25;;
69087;SDS011;56190;43.562;5.036;2022-12-29T05:44:40;6.43;;;4.63;;
69087;SDS011;56190;43.562;5.036;2022-12-29T05:47:05;8.93;;;5.07;;
69087;SDS011;56190;43.562;5.036;2022-12-29T05:49:30;12.50;;;5.65;;
69087;SDS011;56190;43.562;5.036;2022-12-29T05:51:56;11.23;;;5.45;;
69087;SDS011;56190;43.562;5.036;2022-12-29T05:54:21;7.45;;;5.10;;
69087;SDS011;56190;43.562;5.036;2022-12-29T05:56:46;10.43;;;5.28;;
69087;SDS011;56190;43.562;5.036;2022-12-29T05:59:11;9.77;;;6.07;;
69087;SDS011;56190;43.562;5.036;2022-12-29T06:01:37;9.98;;;5.60;;
69087;SDS011;56190;43.562;5.036;2022-12-29T06:04:02;9.05;;;5.40;;
69087;SDS011;56190;43.562;5.036;2022-12-29T06:06:27;8.02;;;5.40;;
69087;SDS011;56190;43.562;5.036;2022-12-29T06:08:53;8.45;;;5.05;;
69087;SDS011;56190;43.562;5.036;2022-12-29T06:11:18;8.45;;;5.60;;
69087;SDS011;56190;43.562;5.036;2022-12-29T06:13:43;9.82;;;5.57;;
69087;SDS011;56190;43.562;5.036;2022-12-29T06:16:08;13.93;;;6.00;;
69087;SDS011;56190;43.562;5.036;2022-12-29T06:18:34;7.18;;;5.03;;
69087;SDS011;56190;43.562;5.036;2022-12-29T06:21:00;10.05;;;5.70;;
69087;SDS011;56190;43.562;5.036;2022-12-29T06:23:26;10.82;;;5.57;;
69087;SDS011;56190;43.562;5.036;2022-12-29T06:25:51;7.85;;;5.53;;
69087;SDS011;56190;43.562;5.036;2022-12-29T06:28:16;10.35;;;5.72;;
69087;SDS011;56190;43.562;5.036;2022-12-29T06:30:43;9.35;;;5.65;;
69087;SDS011;56190;43.562;5.036;2022-12-29T06:33:08;10.73;;;5.53;;
69087;SDS011;56190;43.562;5.036;2022-12-29T06:35:33;11.25;;;5.93;;
69087;SDS011;56190;43.562;5.036;2022-12-29T06:37:59;11.25;;;6.45;;
69087;SDS011;56190;43.562;5.036;2022-12-29T06:40:24;10.05;;;6.95;;
69087;SDS011;56190;43.562;5.036;2022-12-29T06:42:49;11.02;;;5.90;;
69087;SDS011;56190;43.562;5.036;2022-12-29T06:45:14;11.55;;;7.93;;
69087;SDS011;56190;43.562;5.036;2022-12-29T06:47:40;16.55;;;11.30;;
69087;SDS011;56190;43.562;5.036;2022-12-29T06:50:05;14.25;;;8.98;;
69087;SDS011;56190;43.562;5.036;2022-12-29T06:52:30;15.82;;;9.32;;
69087;SDS011;56190;43.562;5.036;2022-12-29T06:54:56;10.70;;;7.40;;
69087;SDS011;56190;43.562;5.036;2022-12-29T06:57:21;10.57;;;6.40;;
69087;SDS011;56190;43.562;5.036;2022-12-29T06:59:46;14.75;;;6.70;;
69087;SDS011;56190;43.562;5.036;2022-12-29T07:02:12;8.85;;;6.25;;
69087;SDS011;56190;43.562;5.036;2022-12-29T07:04:39;10.63;;;6.10;;
69087;SDS011;56190;43.562;5.036;2022-12-29T07:07:04;8.73;;;6.45;;
69087;SDS011;56190;43.562;5.036;2022-12-29T07:09:30;10.35;;;6.63;;
69087;SDS011;56190;43.562;5.036;2022-12-29T07:11:55;12.10;;;6.88;;
69087;SDS011;56190;43.562;5.036;2022-12-29T07:14:20;11.05;;;6.65;;
69087;SDS011;56190;43.562;5.036;2022-12-29T07:16:45;12.38;;;6.53;;
69087;SDS011;56190;43.562;5.036;2022-12-29T07:19:11;13.32;;;6.88;;
69087;SDS011;56190;43.562;5.036;2022-12-29T07:21:36;9.98;;;6.03;;
69087;SDS011;56190;43.562;5.036;2022-12-29T07:24:01;10.85;;;6.10;;
69087;SDS011;56190;43.562;5.036;2022-12-29T07:26:27;10.75;;;6.35;;
69087;SDS011;56190;43.562;5.036;2022-12-29T07:28:52;10.27;;;6.60;;
69087;SDS011;56190;43.562;5.036;2022-12-29T07:31:19;12.07;;;6.60;;
69087;SDS011;56190;43.562;5.036;2022-12-29T07:33:45;11.27;;;6.40;;
69087;SDS011;56190;43.562;5.036;2022-12-29T07:36:11;10.50;;;7.00;;
69087;SDS011;56190;43.562;5.036;2022-12-29T07:38:36;10.13;;;6.55;;
69087;SDS011;56190;43.562;5.036;2022-12-29T07:41:01;11.85;;;7.15;;
69087;SDS011;56190;43.562;5.036;2022-12-29T07:43:27;10.52;;;6.22;;
69087;SDS011;56190;43.562;5.036;2022-12-29T07:45:52;11.38;;;7.18;;
69087;SDS011;56190;43.562;5.036;2022-12-29T07:48:17;9.10;;;5.75;;
69087;SDS011;56190;43.562;5.036;2022-12-29T07:50:43;10.38;;;5.93;;
69087;SDS011;56190;43.562;5.036;2022-12-29T07:53:08;11.65;;;6.00;;
69087;SDS011;56190;43.562;5.036;2022-12-29T07:55:33;11.73;;;6.22;;
69087;SDS011;56190;43.562;5.036;2022-12-29T07:57:59;9.85;;;5.95;;
69087;SDS011;56190;43.562;5.036;2022-12-29T08:00:24;8.52;;;5.70;;
69087;SDS011;56190;43.562;5.036;2022-12-29T08:02:49;8.00;;;5.38;;
69087;SDS011;56190;43.562;5.036;2022-12-29T08:05:15;11.57;;;6.25;;
69087;SDS011;56190;43.562;5.036;2022-12-29T08:07:42;12.25;;;6.88;;
69087;SDS011;56190;43.562;5.036;2022-12-29T08:10:07;12.45;;;6.60;;
69087;SDS011;56190;43.562;5.036;2022-12-29T08:12:33;12.35;;;6.63;;
69087;SDS011;56190;43.562;5.036;2022-12-29T08:14:58;10.20;;;6.28;;
69087;SDS011;56190;43.562;5.036;2022-12-29T08:17:23;11.35;;;6.38;;
69087;SDS011;56190;43.562;5.036;2022-12-29T08:19:48;11.38;;;5.82;;
69087;SDS011;56190;43.562;5.036;2022-12-29T08:22:14;10.82;;;6.72;;
69087;SDS011;56190;43.562;5.036;2022-12-29T08:24:39;10.98;;;6.35;;
69087;SDS011;56190;43.562;5.036;2022-12-29T08:27:05;8.80;;;6.30;;
69087;SDS011;56190;43.562;5.036;2022-12-29T08:29:30;10.20;;;6.20;;
69087;SDS011;56190;43.562;5.036;2022-12-29T08:31:55;9.10;;;6.50;;
69087;SDS011;56190;43.562;5.036;2022-12-29T08:34:20;9.52;;;6.68;;
69087;SDS011;56190;43.562;5.036;2022-12-29T08:36:46;10.98;;;6.80;;
69087;SDS011;56190;43.562;5.036;2022-12-29T08:39:11;12.25;;;6.75;;
69087;SDS011;56190;43.562;5.036;2022-12-29T08:41:36;10.65;;;6.78;;
69087;SDS011;56190;43.562;5.036;2022-12-29T08:44:01;11.23;;;6.65;;
69087;SDS011;56190;43.562;5.036;2022-12-29T08:46:27;11.30;;;6.50;;
69087;SDS011;56190;43.562;5.036;2022-12-29T08:48:52;16.35;;;7.05;;
69087;SDS011;56190;43.562;5.036;2022-12-29T08:51:18;13.15;;;7.05;;
69087;SDS011;56190;43.562;5.036;2022-12-29T08:53:43;11.38;;;6.85;;
69087;SDS011;56190;43.562;5.036;2022-12-29T08:56:09;10.40;;;7.18;;
69087;SDS011;56190;43.562;5.036;2022-12-29T08:58:35;10.38;;;6.07;;
69087;SDS011;56190;43.562;5.036;2022-12-29T09:01:00;8.18;;;5.85;;
69087;SDS011;56190;43.562;5.036;2022-12-29T09:03:25;10.55;;;6.15;;
69087;SDS011;56190;43.562;5.036;2022-12-29T09:05:51;10.90;;;6.70;;
69087;SDS011;56190;43.562;5.036;2022-12-29T09:08:17;15.90;;;8.73;;
69087;SDS011;56190;43.562;5.036;2022-12-29T09:10:43;13.60;;;8.27;;
69087;SDS011;56190;43.562;5.036;2022-12-29T09:13:08;13.32;;;8.05;;
69087;SDS011;56190;43.562;5.036;2022-12-29T09:15:33;10.82;;;7.82;;
69087;SDS011;56190;43.562;5.036;2022-12-29T09:17:59;12.13;;;7.65;;
69087;SDS011;56190;43.562;5.036;2022-12-29T09:20:24;11.88;;;7.53;;
69087;SDS011;56190;43.562;5.036;2022-12-29T09:22:49;8.88;;;5.88;;
69087;SDS011;56190;43.562;5.036;2022-12-29T09:25:15;12.43;;;6.90;;
69087;SDS011;56190;43.562;5.036;2022-12-29T09:27:40;10.45;;;6.57;;
69087;SDS011;56190;43.562;5.036;2022-12-29T09:30:07;9.93;;;5.97;;
69087;SDS011;56190;43.562;5.036;2022-12-29T09:32:33;11.20;;;6.32;;
69087;SDS011;56190;43.562;5.036;2022-12-29T09:34:58;10.20;;;6.00;;
69087;SDS011;56190;43.562;5.036;2022-12-29T09:37:23;14.50;;;7.13;;
69087;SDS011;56190;43.562;5.036;2022-12-29T09:39:48;11.43;;;6.00;;
69087;SDS011;56190;43.562;5.036;2022-12-29T09:42:19;10.30;;;6.03;;
69087;SDS011;56190;43.562;5.036;2022-12-29T09:47:31;9.43;;;6.05;;
69087;SDS011;56190;43.562;5.036;2022-12-29T09:52:23;18.45;;;10.35;;
69087;SDS011;56190;43.562;5.036;2022-12-29T09:57:23;17.52;;;9.43;;
69087;SDS011;56190;43.562;5.036;2022-12-29T09:59:50;15.15;;;8.85;;
69087;SDS011;56190;43.562;5.036;2022-12-29T10:02:20;13.32;;;7.80;;
69087;SDS011;56190;43.562;5.036;2022-12-29T10:04:48;15.32;;;8.50;;
69087;SDS011;56190;43.562;5.036;2022-12-29T10:07:16;22.52;;;11.48;;
69087;SDS011;56190;43.562;5.036;2022-12-29T10:09:50;16.67;;;10.52;;
69087;SDS011;56190;43.562;5.036;2022-12-29T10:25:18;16.65;;;11.13;;
69087;SDS011;56190;43.562;5.036;2022-12-29T10:27:43;20.75;;;13.35;;
69087;SDS011;56190;43.562;5.036;2022-12-29T10:30:12;19.50;;;12.75;;
69087;SDS011;56190;43.562;5.036;2022-12-29T10:35:23;19.60;;;13.70;;
69087;SDS011;56190;43.562;5.036;2022-12-29T10:40:40;16.15;;;12.02;;
69087;SDS011;56190;43.562;5.036;2022-12-29T10:43:16;19.63;;;11.88;;
69087;SDS011;56190;43.562;5.036;2022-12-29T10:45:43;16.73;;;11.15;;
69087;SDS011;56190;43.562;5.036;2022-12-29T10:48:11;16.23;;;11.18;;
69087;SDS011;56190;43.562;5.036;2022-12-29T10:50:40;19.15;;;9.52;;
69087;SDS011;56190;43.562;5.036;2022-12-29T10:53:07;14.77;;;8.98;;
69087;SDS011;56190;43.562;5.036;2022-12-29T10:55:37;13.88;;;8.80;;
69087;SDS011;56190;43.562;5.036;2022-12-29T10:58:07;15.65;;;10.77;;
69087;SDS011;56190;43.562;5.036;2022-12-29T11:00:35;14.20;;;9.30;;
69087;SDS011;56190;43.562;5.036;2022-12-29T11:08:10;15.35;;;9.50;;
69087;SDS011;56190;43.562;5.036;2022-12-29T11:10:38;14.63;;;9.23;;
69087;SDS011;56190;43.562;5.036;2022-12-29T11:13:16;16.23;;;9.48;;
69087;SDS011;56190;43.562;5.036;2022-12-29T11:15:50;21.98;;;10.10;;
69087;SDS011;56190;43.562;5.036;2022-12-29T11:20:47;15.13;;;9.15;;
69087;SDS011;56190;43.562;5.036;2022-12-29T11:28:31;15.15;;;8.52;;
69087;SDS011;56190;43.562;5.036;2022-12-29T11:31:01;16.63;;;8.85;;
69087;SDS011;56190;43.562;5.036;2022-12-29T11:33:37;13.35;;;8.02;;
69087;SDS011;56190;43.562;5.036;2022-12-29T11:36:16;14.02;;;7.75;;
69087;SDS011;56190;43.562;5.036;2022-12-29T11:38:45;14.75;;;7.80;;
69087;SDS011;56190;43.562;5.036;2022-12-29T11:41:11;13.25;;;6.60;;
69087;SDS011;56190;43.562;5.036;2022-12-29T11:43:37;10.18;;;7.63;;
69087;SDS011;56190;43.562;5.036;2022-12-29T11:46:03;15.68;;;7.05;;
69087;SDS011;56190;43.562;5.036;2022-12-29T11:48:33;12.63;;;7.60;;
69087;SDS011;56190;43.562;5.036;2022-12-29T11:51:02;13.07;;;8.10;;
69087;SDS011;56190;43.562;5.036;2022-12-29T11:55:57;13.45;;;8.32;;
69087;SDS011;56190;43.562;5.036;2022-12-29T11:58:29;12.07;;;8.20;;
69087;SDS011;56190;43.562;5.036;2022-12-29T12:00:57;12.85;;;8.15;;
69087;SDS011;56190;43.562;5.036;2022-12-29T12:03:25;12.85;;;6.65;;
69087;SDS011;56190;43.562;5.036;2022-12-29T12:05:56;12.60;;;7.90;;
69087;SDS011;56190;43.562;5.036;2022-12-29T12:13:33;14.95;;;7.68;;
69087;SDS011;56190;43.562;5.036;2022-12-29T12:18:36;12.10;;;6.82;;
69087;SDS011;56190;43.562;5.036;2022-12-29T12:21:18;9.50;;;6.10;;
69087;SDS011;56190;43.562;5.036;2022-12-29T12:26:36;10.13;;;6.72;;
69087;SDS011;56190;43.562;5.036;2022-12-29T12:29:08;12.75;;;6.80;;
69087;SDS011;56190;43.562;5.036;2022-12-29T12:34:02;9.20;;;6.22;;
69087;SDS011;56190;43.562;5.036;2022-12-29T12:57:22;10.23;;;6.68;;
69087;SDS011;56190;43.562;5.036;2022-12-29T13:07:26;11.88;;;6.60;;
69087;SDS011;56190;43.562;5.036;2022-12-29T13:10:12;9.57;;;6.10;;
69087;SDS011;56190;43.562;5.036;2022-12-29T13:12:46;10.43;;;6.18;;
69087;SDS011;56190;43.562;5.036;2022-12-29T13:17:44;10.57;;;6.03;;
69087;SDS011;56190;43.562;5.036;2022-12-29T13:20:17;10.00;;;6.13;;
69087;SDS011;56190;43.562;5.036;2022-12-29T13:25:28;6.95;;;5.50;;
69087;SDS011;56190;43.562;5.036;2022-12-29T13:28:19;11.00;;;6.07;;
69087;SDS011;56190;43.562;5.036;2022-12-29T13:36:09;13.45;;;6.32;;
69087;SDS011;56190;43.562;5.036;2022-12-29T13:38:46;10.10;;;6.63;;
69087;SDS011;56190;43.562;5.036;2022-12-29T13:41:14;16.48;;;9.57;;
69087;SDS011;56190;43.562;5.036;2022-12-29T13:43:42;14.98;;;7.47;;
69087;SDS011;56190;43.562;5.036;2022-12-29T13:46:42;11.50;;;6.15;;
69087;SDS011;56190;43.562;5.036;2022-12-29T13:49:02;10.82;;;6.45;;
69087;SDS011;56190;43.562;5.036;2022-12-29T13:51:29;13.80;;;6.45;;
69087;SDS011;56190;43.562;5.036;2022-12-29T14:01:59;13.63;;;6.88;;
69087;SDS011;56190;43.562;5.036;2022-12-29T14:04:28;13.02;;;6.63;;
69087;SDS011;56190;43.562;5.036;2022-12-29T14:11:56;11.57;;;7.40;;
69087;SDS011;56190;43.562;5.036;2022-12-29T14:16:46;14.05;;;7.88;;
69087;SDS011;56190;43.562;5.036;2022-12-29T14:19:13;10.75;;;7.93;;
69087;SDS011;56190;43.562;5.036;2022-12-29T14:21:40;12.02;;;8.15;;
69087;SDS011;56190;43.562;5.036;2022-12-29T14:24:51;10.43;;;7.53;;
69087;SDS011;56190;43.562;5.036;2022-12-29T14:26:51;16.35;;;7.18;;
69087;SDS011;56190;43.562;5.036;2022-12-29T14:31:42;9.98;;;6.72;;
69087;SDS011;56190;43.562;5.036;2022-12-29T14:36:37;10.52;;;6.18;;
69087;SDS011;56190;43.562;5.036;2022-12-29T14:39:03;10.57;;;6.97;;
69087;SDS011;56190;43.562;5.036;2022-12-29T14:41:36;14.75;;;8.75;;
69087;SDS011;56190;43.562;5.036;2022-12-29T14:44:19;15.57;;;9.88;;
69087;SDS011;56190;43.562;5.036;2022-12-29T14:46:46;15.77;;;10.73;;
69087;SDS011;56190;43.562;5.036;2022-12-29T14:49:20;12.90;;;7.97;;
69087;SDS011;56190;43.562;5.036;2022-12-29T14:51:47;22.02;;;12.35;;
69087;SDS011;56190;43.562;5.036;2022-12-29T14:56:58;18.77;;;10.48;;
69087;SDS011;56190;43.562;5.036;2022-12-29T14:59:24;16.92;;;8.50;;
69087;SDS011;56190;43.562;5.036;2022-12-29T15:01:52;28.52;;;19.75;;
69087;SDS011;56190;43.562;5.036;2022-12-29T15:04:19;16.70;;;11.70;;
69087;SDS011;56190;43.562;5.036;2022-12-29T15:06:45;40.17;;;29.75;;
69087;SDS011;56190;43.562;5.036;2022-12-29T15:09:22;35.65;;;27.52;;
69087;SDS011;56190;43.562;5.036;2022-12-29T15:14:36;25.40;;;18.25;;
69087;SDS011;56190;43.562;5.036;2022-12-29T15:17:08;17.58;;;10.18;;
69087;SDS011;56190;43.562;5.036;2022-12-29T15:19:35;20.73;;;14.68;;
69087;SDS011;56190;43.562;5.036;2022-12-29T15:22:02;20.85;;;13.65;;
69087;SDS011;56190;43.562;5.036;2022-12-29T15:24:27;21.92;;;16.98;;
69087;SDS011;56190;43.562;5.036;2022-12-29T15:26:53;25.85;;;22.77;;
69087;SDS011;56190;43.562;5.036;2022-12-29T15:32:01;16.48;;;13.40;;
69087;SDS011;56190;43.562;5.036;2022-12-29T15:34:29;22.40;;;14.25;;
69087;SDS011;56190;43.562;5.036;2022-12-29T15:36:54;16.80;;;12.05;;
69087;SDS011;56190;43.562;5.036;2022-12-29T15:39:20;17.63;;;10.50;;
69087;SDS011;56190;43.562;5.036;2022-12-29T15:41:52;16.30;;;10.30;;
69087;SDS011;56190;43.562;5.036;2022-12-29T15:44:29;51.90;;;26.17;;
69087;SDS011;56190;43.562;5.036;2022-12-29T15:46:56;33.30;;;19.33;;
69087;SDS011;56190;43.562;5.036;2022-12-29T15:49:22;25.33;;;15.15;;
69087;SDS011;56190;43.562;5.036;2022-12-29T15:51:49;19.20;;;10.95;;
69087;SDS011;56190;43.562;5.036;2022-12-29T15:54:18;74.57;;;40.50;;
69087;SDS011;56190;43.562;5.036;2022-12-29T15:56:44;29.63;;;19.23;;
69087;SDS011;56190;43.562;5.036;2022-12-29T15:59:29;28.08;;;17.23;;
69087;SDS011;56190;43.562;5.036;2022-12-29T16:01:55;35.35;;;25.52;;
69087;SDS011;56190;43.562;5.036;2022-12-29T16:04:21;30.02;;;21.23;;
69087;SDS011;56190;43.562;5.036;2022-12-29T16:06:58;107.47;;;51.63;;
69087;SDS011;56190;43.562;5.036;2022-12-29T16:09:30;28.88;;;21.65;;
69087;SDS011;56190;43.562;5.036;2022-12-29T16:12:03;29.25;;;17.00;;
69087;SDS011;56190;43.562;5.036;2022-12-29T16:14:31;26.48;;;15.40;;
69087;SDS011;56190;43.562;5.036;2022-12-29T16:16:58;18.80;;;12.30;;
69087;SDS011;56190;43.562;5.036;2022-12-29T16:19:26;25.67;;;14.95;;
69087;SDS011;56190;43.562;5.036;2022-12-29T16:21:52;26.30;;;16.95;;
69087;SDS011;56190;43.562;5.036;2022-12-29T16:24:20;18.85;;;14.45;;
69087;SDS011;56190;43.562;5.036;2022-12-29T16:26:49;65.15;;;46.40;;
69087;SDS011;56190;43.562;5.036;2022-12-29T16:29:16;52.58;;;44.83;;
69087;SDS011;56190;43.562;5.036;2022-12-29T16:31:50;34.72;;;27.38;;
69087;SDS011;56190;43.562;5.036;2022-12-29T16:34:28;34.63;;;27.98;;
69087;SDS011;56190;43.562;5.036;2022-12-29T16:36:55;31.10;;;23.27;;
69087;SDS011;56190;43.562;5.036;2022-12-29T16:39:23;24.10;;;18.58;;
69087;SDS011;56190;43.562;5.036;2022-12-29T16:41:50;16.63;;;12.57;;
69087;SDS011;56190;43.562;5.036;2022-12-29T16:44:23;15.30;;;9.82;;
69087;SDS011;56190;43.562;5.036;2022-12-29T16:49:33;17.20;;;11.18;;
69087;SDS011;56190;43.562;5.036;2022-12-29T16:51:59;17.40;;;12.75;;
69087;SDS011;56190;43.562;5.036;2022-12-29T16:54:26;15.65;;;11.75;;
69087;SDS011;56190;43.562;5.036;2022-12-29T16:56:53;15.60;;;12.13;;
69087;SDS011;56190;43.562;5.036;2022-12-29T17:01:44;42.20;;;37.20;;
69087;SDS011;56190;43.562;5.036;2022-12-29T17:04:10;37.47;;;33.55;;
69087;SDS011;56190;43.562;5.036;2022-12-29T17:06:36;25.45;;;19.75;;
69087;SDS011;56190;43.562;5.036;2022-12-29T17:09:02;33.38;;;28.00;;
69087;SDS011;56190;43.562;5.036;2022-12-29T17:11:28;27.17;;;23.13;;
69087;SDS011;56190;43.562;5.036;2022-12-29T17:14:16;46.55;;;35.15;;
69087;SDS011;56190;43.562;5.036;2022-12-29T17:16:44;32.03;;;24.90;;
69087;SDS011;56190;43.562;5.036;2022-12-29T17:19:12;19.08;;;12.25;;
69087;SDS011;56190;43.562;5.036;2022-12-29T17:21:40;22.98;;;15.23;;
69087;SDS011;56190;43.562;5.036;2022-12-29T17:24:09;15.93;;;10.65;;
69087;SDS011;56190;43.562;5.036;2022-12-29T17:26:38;18.33;;;10.00;;
69087;SDS011;56190;43.562;5.036;2022-12-29T17:29:04;27.67;;;18.30;;